sensor_id;sensor_type;location;lat;lon;timestamp;temperature;humidity
59973;DHT22;55298;-36.624;-64.282;2023-11-21T00:00:55;27.30;14.30
59973;DHT22;55298;-36.624;-64.282;2023-11-21T00:03:23;27.20;14.40
59973;DHT22;55298;-36.624;-64.282;2023-11-21T00:05:51;27.20;14.70
59973;DHT22;55298;-36.624;-64.282;2023-11-21T00:08:19;27.10;14.20
59973;DHT22;55298;-36.624;-64.282;2023-11-21T00:10:46;27.10;14.20
59973;DHT22;55298;-36.624;-64.282;2023-11-21T00:13:15;27.00;14.10
59973;DHT22;55298;-36.624;-64.282;2023-11-21T00:15:43;27.00;14.20
59973;DHT22;55298;-36.624;-64.282;2023-11-21T00:18:10;26.90;14.30
59973;DHT22;55298;-36.624;-64.282;2023-11-21T00:20:38;26.90;14.30
59973;DHT22;55298;-36.624;-64.282;2023-11-21T00:23:06;26.90;14.40
59973;DHT22;55298;-36.624;-64.282;2023-11-21T00:25:33;26.90;14.40
59973;DHT22;55298;-36.624;-64.282;2023-11-21T00:28:02;26.70;14.50
59973;DHT22;55298;-36.624;-64.282;2023-11-21T00:30:31;26.70;14.70
59973;DHT22;55298;-36.624;-64.282;2023-11-21T00:33:00;26.60;14.90
59973;DHT22;55298;-36.624;-64.282;2023-11-21T00:35:27;26.50;14.90
59973;DHT22;55298;-36.624;-64.282;2023-11-21T00:37:56;26.40;15.10
59973;DHT22;55298;-36.624;-64.282;2023-11-21T00:40:24;26.30;15.10
59973;DHT22;55298;-36.624;-64.282;2023-11-21T00:42:52;26.20;15.30
59973;DHT22;55298;-36.624;-64.282;2023-11-21T00:45:20;26.10;15.40
59973;DHT22;55298;-36.624;-64.282;2023-11-21T00:47:47;26.00;15.60
59973;DHT22;55298;-36.624;-64.282;2023-11-21T00:50:15;26.00;15.60
59973;DHT22;55298;-36.624;-64.282;2023-11-21T00:52:43;25.90;15.60
59973;DHT22;55298;-36.624;-64.282;2023-11-21T00:55:11;25.80;15.80
59973;DHT22;55298;-36.624;-64.282;2023-11-21T00:57:38;25.70;15.90
59973;DHT22;55298;-36.624;-64.282;2023-11-21T01:00:07;25.70;15.90
59973;DHT22;55298;-36.624;-64.282;2023-11-21T01:02:41;25.60;15.80
59973;DHT22;55298;-36.624;-64.282;2023-11-21T01:05:10;25.50;15.90
59973;DHT22;55298;-36.624;-64.282;2023-11-21T01:07:38;25.40;15.90
59973;DHT22;55298;-36.624;-64.282;2023-11-21T01:10:06;25.40;15.80
59973;DHT22;55298;-36.624;-64.282;2023-11-21T01:12:37;25.40;15.80
59973;DHT22;55298;-36.624;-64.282;2023-11-21T01:15:06;25.30;15.80
59973;DHT22;55298;-36.624;-64.282;2023-11-21T01:17:34;25.30;15.80
59973;DHT22;55298;-36.624;-64.282;2023-11-21T01:20:03;25.20;15.80
59973;DHT22;55298;-36.624;-64.282;2023-11-21T01:22:37;25.20;15.90
59973;DHT22;55298;-36.624;-64.282;2023-11-21T01:25:05;25.10;15.80
59973;DHT22;55298;-36.624;-64.282;2023-11-21T01:27:35;25.10;15.80
59973;DHT22;55298;-36.624;-64.282;2023-11-21T01:30:04;25.00;15.90
59973;DHT22;55298;-36.624;-64.282;2023-11-21T01:32:34;24.90;16.10
59973;DHT22;55298;-36.624;-64.282;2023-11-21T01:35:02;24.90;16.20
59973;DHT22;55298;-36.624;-64.282;2023-11-21T01:37:32;24.80;16.10
59973;DHT22;55298;-36.624;-64.282;2023-11-21T01:40:00;24.70;16.20
59973;DHT22;55298;-36.624;-64.282;2023-11-21T01:42:28;24.70;16.30
59973;DHT22;55298;-36.624;-64.282;2023-11-21T01:44:56;24.60;16.20
59973;DHT22;55298;-36.624;-64.282;2023-11-21T01:47:24;24.50;16.40
59973;DHT22;55298;-36.624;-64.282;2023-11-21T01:49:52;24.50;16.40
59973;DHT22;55298;-36.624;-64.282;2023-11-21T01:52:20;24.50;16.50
59973;DHT22;55298;-36.624;-64.282;2023-11-21T01:54:48;24.40;16.70
59973;DHT22;55298;-36.624;-64.282;2023-11-21T01:59:51;24.30;17.00
59973;DHT22;55298;-36.624;-64.282;2023-11-21T02:02:21;24.20;16.80
59973;DHT22;55298;-36.624;-64.282;2023-11-21T02:04:51;24.00;16.80
59973;DHT22;55298;-36.624;-64.282;2023-11-21T02:07:18;24.10;16.90
59973;DHT22;55298;-36.624;-64.282;2023-11-21T02:09:46;24.00;17.10
59973;DHT22;55298;-36.624;-64.282;2023-11-21T02:12:16;23.90;17.10
59973;DHT22;55298;-36.624;-64.282;2023-11-21T02:14:44;23.90;17.10
59973;DHT22;55298;-36.624;-64.282;2023-11-21T02:17:11;23.90;17.20
59973;DHT22;55298;-36.624;-64.282;2023-11-21T02:19:40;23.80;17.10
59973;DHT22;55298;-36.624;-64.282;2023-11-21T02:22:08;23.70;17.70
59973;DHT22;55298;-36.624;-64.282;2023-11-21T02:24:36;23.70;18.50
59973;DHT22;55298;-36.624;-64.282;2023-11-21T02:27:05;23.60;18.00
59973;DHT22;55298;-36.624;-64.282;2023-11-21T02:29:33;23.50;17.80
59973;DHT22;55298;-36.624;-64.282;2023-11-21T02:32:01;23.50;18.10
59973;DHT22;55298;-36.624;-64.282;2023-11-21T02:34:28;23.40;18.30
59973;DHT22;55298;-36.624;-64.282;2023-11-21T02:36:56;23.40;18.60
59973;DHT22;55298;-36.624;-64.282;2023-11-21T02:39:24;23.30;18.60
59973;DHT22;55298;-36.624;-64.282;2023-11-21T02:41:52;23.30;18.20
59973;DHT22;55298;-36.624;-64.282;2023-11-21T02:44:20;23.20;18.90
59973;DHT22;55298;-36.624;-64.282;2023-11-21T02:46:47;23.10;19.20
59973;DHT22;55298;-36.624;-64.282;2023-11-21T02:49:15;23.10;18.80
59973;DHT22;55298;-36.624;-64.282;2023-11-21T02:51:43;23.00;19.40
59973;DHT22;55298;-36.624;-64.282;2023-11-21T02:54:10;23.00;19.40
59973;DHT22;55298;-36.624;-64.282;2023-11-21T02:56:38;22.90;19.10
59973;DHT22;55298;-36.624;-64.282;2023-11-21T02:59:07;22.80;19.40
59973;DHT22;55298;-36.624;-64.282;2023-11-21T03:01:35;22.80;19.40
59973;DHT22;55298;-36.624;-64.282;2023-11-21T03:04:04;22.70;19.50
59973;DHT22;55298;-36.624;-64.282;2023-11-21T03:06:32;22.60;19.90
59973;DHT22;55298;-36.624;-64.282;2023-11-21T03:09:00;22.50;19.70
59973;DHT22;55298;-36.624;-64.282;2023-11-21T03:11:28;22.50;19.70
59973;DHT22;55298;-36.624;-64.282;2023-11-21T03:13:56;22.40;19.40
59973;DHT22;55298;-36.624;-64.282;2023-11-21T03:16:23;22.40;20.00
59973;DHT22;55298;-36.624;-64.282;2023-11-21T03:18:52;22.30;19.80
59973;DHT22;55298;-36.624;-64.282;2023-11-21T03:21:21;22.30;20.00
59973;DHT22;55298;-36.624;-64.282;2023-11-21T03:23:49;22.30;19.90
59973;DHT22;55298;-36.624;-64.282;2023-11-21T03:26:17;22.20;20.00
59973;DHT22;55298;-36.624;-64.282;2023-11-21T03:28:45;22.20;20.10
59973;DHT22;55298;-36.624;-64.282;2023-11-21T03:31:12;22.20;20.30
59973;DHT22;55298;-36.624;-64.282;2023-11-21T03:33:40;22.20;20.40
59973;DHT22;55298;-36.624;-64.282;2023-11-21T03:36:08;22.20;20.20
59973;DHT22;55298;-36.624;-64.282;2023-11-21T03:38:36;22.20;20.20
59973;DHT22;55298;-36.624;-64.282;2023-11-21T03:41:05;22.20;20.10
59973;DHT22;55298;-36.624;-64.282;2023-11-21T03:43:33;22.10;20.10
59973;DHT22;55298;-36.624;-64.282;2023-11-21T03:46:00;22.10;19.90
59973;DHT22;55298;-36.624;-64.282;2023-11-21T03:48:29;22.00;20.20
59973;DHT22;55298;-36.624;-64.282;2023-11-21T03:50:57;22.00;20.70
59973;DHT22;55298;-36.624;-64.282;2023-11-21T03:53:25;22.00;20.80
59973;DHT22;55298;-36.624;-64.282;2023-11-21T03:55:53;22.00;21.00
59973;DHT22;55298;-36.624;-64.282;2023-11-21T03:58:20;22.00;21.00
59973;DHT22;55298;-36.624;-64.282;2023-11-21T04:00:48;22.00;21.10
59973;DHT22;55298;-36.624;-64.282;2023-11-21T04:03:17;22.00;21.20
59973;DHT22;55298;-36.624;-64.282;2023-11-21T04:05:45;21.90;21.30
59973;DHT22;55298;-36.624;-64.282;2023-11-21T04:08:13;21.80;21.80
59973;DHT22;55298;-36.624;-64.282;2023-11-21T04:10:41;21.80;21.80
59973;DHT22;55298;-36.624;-64.282;2023-11-21T04:13:09;21.70;22.10
59973;DHT22;55298;-36.624;-64.282;2023-11-21T04:15:37;21.60;22.10
59973;DHT22;55298;-36.624;-64.282;2023-11-21T04:18:05;21.60;22.00
59973;DHT22;55298;-36.624;-64.282;2023-11-21T04:20:32;21.60;22.50
59973;DHT22;55298;-36.624;-64.282;2023-11-21T04:23:00;21.50;22.60
59973;DHT22;55298;-36.624;-64.282;2023-11-21T04:25:28;21.50;22.90
59973;DHT22;55298;-36.624;-64.282;2023-11-21T04:27:55;21.40;22.70
59973;DHT22;55298;-36.624;-64.282;2023-11-21T04:30:23;21.30;23.10
59973;DHT22;55298;-36.624;-64.282;2023-11-21T04:32:51;21.30;23.10
59973;DHT22;55298;-36.624;-64.282;2023-11-21T04:35:19;21.30;22.90
59973;DHT22;55298;-36.624;-64.282;2023-11-21T04:37:46;21.30;23.50
59973;DHT22;55298;-36.624;-64.282;2023-11-21T04:40:14;21.20;23.40
59973;DHT22;55298;-36.624;-64.282;2023-11-21T04:42:42;21.20;23.70
59973;DHT22;55298;-36.624;-64.282;2023-11-21T04:45:10;21.10;23.70
59973;DHT22;55298;-36.624;-64.282;2023-11-21T04:47:38;21.10;24.10
59973;DHT22;55298;-36.624;-64.282;2023-11-21T04:50:06;21.10;24.30
59973;DHT22;55298;-36.624;-64.282;2023-11-21T04:52:34;21.10;24.20
59973;DHT22;55298;-36.624;-64.282;2023-11-21T04:55:02;21.00;24.10
59973;DHT22;55298;-36.624;-64.282;2023-11-21T04:57:29;21.00;24.20
59973;DHT22;55298;-36.624;-64.282;2023-11-21T04:59:57;21.00;24.30
59973;DHT22;55298;-36.624;-64.282;2023-11-21T05:02:25;20.90;25.30
59973;DHT22;55298;-36.624;-64.282;2023-11-21T05:04:53;20.90;24.80
59973;DHT22;55298;-36.624;-64.282;2023-11-21T05:07:20;20.90;24.50
59973;DHT22;55298;-36.624;-64.282;2023-11-21T05:09:49;20.80;25.20
59973;DHT22;55298;-36.624;-64.282;2023-11-21T05:12:16;20.80;25.20
59973;DHT22;55298;-36.624;-64.282;2023-11-21T05:14:45;20.80;25.70
59973;DHT22;55298;-36.624;-64.282;2023-11-21T05:17:13;20.80;25.20
59973;DHT22;55298;-36.624;-64.282;2023-11-21T05:19:41;20.70;25.40
59973;DHT22;55298;-36.624;-64.282;2023-11-21T05:22:09;20.70;25.70
59973;DHT22;55298;-36.624;-64.282;2023-11-21T05:24:39;20.70;25.30
59973;DHT22;55298;-36.624;-64.282;2023-11-21T05:27:06;20.70;25.10
59973;DHT22;55298;-36.624;-64.282;2023-11-21T05:29:36;20.70;25.40
59973;DHT22;55298;-36.624;-64.282;2023-11-21T05:32:05;20.60;26.00
59973;DHT22;55298;-36.624;-64.282;2023-11-21T05:34:32;20.60;26.20
59973;DHT22;55298;-36.624;-64.282;2023-11-21T05:37:00;20.60;25.80
59973;DHT22;55298;-36.624;-64.282;2023-11-21T05:39:28;20.50;26.00
59973;DHT22;55298;-36.624;-64.282;2023-11-21T05:41:55;20.50;26.60
59973;DHT22;55298;-36.624;-64.282;2023-11-21T05:44:24;20.50;26.70
59973;DHT22;55298;-36.624;-64.282;2023-11-21T05:46:52;20.40;26.30
59973;DHT22;55298;-36.624;-64.282;2023-11-21T05:49:19;20.40;26.70
59973;DHT22;55298;-36.624;-64.282;2023-11-21T05:51:48;20.40;26.60
59973;DHT22;55298;-36.624;-64.282;2023-11-21T05:54:16;20.40;26.80
59973;DHT22;55298;-36.624;-64.282;2023-11-21T05:56:44;20.40;26.40
59973;DHT22;55298;-36.624;-64.282;2023-11-21T05:59:11;20.30;26.50
59973;DHT22;55298;-36.624;-64.282;2023-11-21T06:01:39;20.30;26.90
59973;DHT22;55298;-36.624;-64.282;2023-11-21T06:04:07;20.30;27.00
59973;DHT22;55298;-36.624;-64.282;2023-11-21T06:06:36;20.20;27.10
59973;DHT22;55298;-36.624;-64.282;2023-11-21T06:09:04;20.20;26.30
59973;DHT22;55298;-36.624;-64.282;2023-11-21T06:11:36;20.20;27.10
59973;DHT22;55298;-36.624;-64.282;2023-11-21T06:14:03;20.10;27.00
59973;DHT22;55298;-36.624;-64.282;2023-11-21T06:16:34;20.10;27.00
59973;DHT22;55298;-36.624;-64.282;2023-11-21T06:19:02;20.10;26.70
59973;DHT22;55298;-36.624;-64.282;2023-11-21T06:21:30;20.00;27.50
59973;DHT22;55298;-36.624;-64.282;2023-11-21T06:23:58;20.00;28.00
59973;DHT22;55298;-36.624;-64.282;2023-11-21T06:26:25;20.00;27.50
59973;DHT22;55298;-36.624;-64.282;2023-11-21T06:28:55;20.00;27.20
59973;DHT22;55298;-36.624;-64.282;2023-11-21T06:31:23;20.00;27.10
59973;DHT22;55298;-36.624;-64.282;2023-11-21T06:33:51;19.90;27.20
59973;DHT22;55298;-36.624;-64.282;2023-11-21T06:36:19;19.90;27.70
59973;DHT22;55298;-36.624;-64.282;2023-11-21T06:38:47;19.90;27.50
59973;DHT22;55298;-36.624;-64.282;2023-11-21T06:41:17;19.90;27.90
59973;DHT22;55298;-36.624;-64.282;2023-11-21T06:43:45;19.80;27.50
59973;DHT22;55298;-36.624;-64.282;2023-11-21T06:46:14;19.80;28.50
59973;DHT22;55298;-36.624;-64.282;2023-11-21T06:48:43;19.70;27.70
59973;DHT22;55298;-36.624;-64.282;2023-11-21T06:51:11;19.70;28.30
59973;DHT22;55298;-36.624;-64.282;2023-11-21T06:53:41;19.70;28.60
59973;DHT22;55298;-36.624;-64.282;2023-11-21T06:56:18;19.60;28.70
59973;DHT22;55298;-36.624;-64.282;2023-11-21T06:58:46;19.60;29.00
59973;DHT22;55298;-36.624;-64.282;2023-11-21T07:01:14;19.60;28.70
59973;DHT22;55298;-36.624;-64.282;2023-11-21T07:03:42;19.60;28.60
59973;DHT22;55298;-36.624;-64.282;2023-11-21T07:06:10;19.50;28.70
59973;DHT22;55298;-36.624;-64.282;2023-11-21T07:08:38;19.50;28.90
59973;DHT22;55298;-36.624;-64.282;2023-11-21T07:11:05;19.50;29.00
59973;DHT22;55298;-36.624;-64.282;2023-11-21T07:13:34;19.40;28.90
59973;DHT22;55298;-36.624;-64.282;2023-11-21T07:16:01;19.40;29.20
59973;DHT22;55298;-36.624;-64.282;2023-11-21T07:18:30;19.40;29.30
59973;DHT22;55298;-36.624;-64.282;2023-11-21T07:20:57;19.40;29.10
59973;DHT22;55298;-36.624;-64.282;2023-11-21T07:23:25;19.30;28.90
59973;DHT22;55298;-36.624;-64.282;2023-11-21T07:25:53;19.40;28.80
59973;DHT22;55298;-36.624;-64.282;2023-11-21T07:28:21;19.30;29.00
59973;DHT22;55298;-36.624;-64.282;2023-11-21T07:30:48;19.30;29.20
59973;DHT22;55298;-36.624;-64.282;2023-11-21T07:33:16;19.30;28.90
59973;DHT22;55298;-36.624;-64.282;2023-11-21T07:35:44;19.30;28.90
59973;DHT22;55298;-36.624;-64.282;2023-11-21T07:38:11;19.30;28.90
59973;DHT22;55298;-36.624;-64.282;2023-11-21T07:40:39;19.30;28.90
59973;DHT22;55298;-36.624;-64.282;2023-11-21T07:43:07;19.20;28.80
59973;DHT22;55298;-36.624;-64.282;2023-11-21T07:45:35;19.20;28.60
59973;DHT22;55298;-36.624;-64.282;2023-11-21T07:48:03;19.10;28.90
59973;DHT22;55298;-36.624;-64.282;2023-11-21T07:50:31;19.10;28.90
59973;DHT22;55298;-36.624;-64.282;2023-11-21T07:52:59;19.00;29.00
59973;DHT22;55298;-36.624;-64.282;2023-11-21T07:55:27;19.00;29.00
59973;DHT22;55298;-36.624;-64.282;2023-11-21T07:57:58;18.90;29.50
59973;DHT22;55298;-36.624;-64.282;2023-11-21T08:00:26;18.90;29.20
59973;DHT22;55298;-36.624;-64.282;2023-11-21T08:02:56;18.80;29.50
59973;DHT22;55298;-36.624;-64.282;2023-11-21T08:05:24;18.70;29.60
59973;DHT22;55298;-36.624;-64.282;2023-11-21T08:07:52;18.60;29.80
59973;DHT22;55298;-36.624;-64.282;2023-11-21T08:10:19;18.60;29.80
59973;DHT22;55298;-36.624;-64.282;2023-11-21T08:12:48;18.50;29.90
59973;DHT22;55298;-36.624;-64.282;2023-11-21T08:15:17;18.50;30.00
59973;DHT22;55298;-36.624;-64.282;2023-11-21T08:17:45;18.30;30.10
59973;DHT22;55298;-36.624;-64.282;2023-11-21T08:20:13;18.20;30.20
59973;DHT22;55298;-36.624;-64.282;2023-11-21T08:22:44;18.20;30.10
59973;DHT22;55298;-36.624;-64.282;2023-11-21T08:25:12;18.10;30.30
59973;DHT22;55298;-36.624;-64.282;2023-11-21T08:27:41;18.10;30.00
59973;DHT22;55298;-36.624;-64.282;2023-11-21T08:30:09;18.00;30.50
59973;DHT22;55298;-36.624;-64.282;2023-11-21T08:32:36;17.90;30.50
59973;DHT22;55298;-36.624;-64.282;2023-11-21T08:35:04;17.80;30.80
59973;DHT22;55298;-36.624;-64.282;2023-11-21T08:37:33;17.70;31.20
59973;DHT22;55298;-36.624;-64.282;2023-11-21T08:40:05;17.60;31.30
59973;DHT22;55298;-36.624;-64.282;2023-11-21T08:42:36;17.60;31.10
59973;DHT22;55298;-36.624;-64.282;2023-11-21T08:45:05;17.60;31.40
59973;DHT22;55298;-36.624;-64.282;2023-11-21T08:47:35;17.50;31.50
59973;DHT22;55298;-36.624;-64.282;2023-11-21T08:50:03;17.50;31.50
59973;DHT22;55298;-36.624;-64.282;2023-11-21T08:52:33;17.50;31.30
59973;DHT22;55298;-36.624;-64.282;2023-11-21T08:55:00;17.50;31.40
59973;DHT22;55298;-36.624;-64.282;2023-11-21T08:57:35;17.40;31.70
59973;DHT22;55298;-36.624;-64.282;2023-11-21T09:00:04;17.50;31.30
59973;DHT22;55298;-36.624;-64.282;2023-11-21T09:02:38;17.50;31.10
59973;DHT22;55298;-36.624;-64.282;2023-11-21T09:05:06;17.50;31.30
59973;DHT22;55298;-36.624;-64.282;2023-11-21T09:07:34;17.50;31.30
59973;DHT22;55298;-36.624;-64.282;2023-11-21T09:10:03;17.50;31.60
59973;DHT22;55298;-36.624;-64.282;2023-11-21T09:12:32;17.40;31.50
59973;DHT22;55298;-36.624;-64.282;2023-11-21T09:15:05;17.40;31.20
59973;DHT22;55298;-36.624;-64.282;2023-11-21T09:17:33;17.40;31.10
59973;DHT22;55298;-36.624;-64.282;2023-11-21T09:20:02;17.40;31.30
59973;DHT22;55298;-36.624;-64.282;2023-11-21T09:22:32;17.40;31.30
59973;DHT22;55298;-36.624;-64.282;2023-11-21T09:25:00;17.30;31.40
59973;DHT22;55298;-36.624;-64.282;2023-11-21T09:27:32;17.30;31.20
59973;DHT22;55298;-36.624;-64.282;2023-11-21T09:30:02;17.20;31.60
59973;DHT22;55298;-36.624;-64.282;2023-11-21T09:32:32;17.30;31.60
59973;DHT22;55298;-36.624;-64.282;2023-11-21T09:35:01;17.30;32.00
59973;DHT22;55298;-36.624;-64.282;2023-11-21T09:37:29;17.20;32.30
59973;DHT22;55298;-36.624;-64.282;2023-11-21T09:39:57;17.20;32.00
59973;DHT22;55298;-36.624;-64.282;2023-11-21T09:42:36;17.20;32.30
59973;DHT22;55298;-36.624;-64.282;2023-11-21T09:45:26;17.30;32.60
59973;DHT22;55298;-36.624;-64.282;2023-11-21T09:47:56;17.40;32.30
59973;DHT22;55298;-36.624;-64.282;2023-11-21T09:50:24;17.30;32.40
59973;DHT22;55298;-36.624;-64.282;2023-11-21T09:55:47;17.50;32.30
59973;DHT22;55298;-36.624;-64.282;2023-11-21T09:58:15;17.50;32.50
59973;DHT22;55298;-36.624;-64.282;2023-11-21T10:00:47;17.50;32.10
59973;DHT22;55298;-36.624;-64.282;2023-11-21T10:03:15;17.50;32.10
59973;DHT22;55298;-36.624;-64.282;2023-11-21T10:05:44;17.60;32.10
59973;DHT22;55298;-36.624;-64.282;2023-11-21T10:08:13;17.60;31.70
59973;DHT22;55298;-36.624;-64.282;2023-11-21T10:10:44;17.70;31.20
59973;DHT22;55298;-36.624;-64.282;2023-11-21T10:13:13;17.70;31.00
59973;DHT22;55298;-36.624;-64.282;2023-11-21T10:15:44;17.70;31.10
59973;DHT22;55298;-36.624;-64.282;2023-11-21T10:18:15;17.70;31.00
59973;DHT22;55298;-36.624;-64.282;2023-11-21T10:20:44;17.70;31.20
59973;DHT22;55298;-36.624;-64.282;2023-11-21T10:23:21;17.70;31.70
59973;DHT22;55298;-36.624;-64.282;2023-11-21T10:25:51;17.80;31.50
59973;DHT22;55298;-36.624;-64.282;2023-11-21T10:28:20;17.80;31.40
59973;DHT22;55298;-36.624;-64.282;2023-11-21T10:30:48;17.90;31.60
59973;DHT22;55298;-36.624;-64.282;2023-11-21T10:33:16;18.10;31.70
59973;DHT22;55298;-36.624;-64.282;2023-11-21T10:35:45;18.20;31.10
59973;DHT22;55298;-36.624;-64.282;2023-11-21T10:38:21;18.30;30.70
59973;DHT22;55298;-36.624;-64.282;2023-11-21T10:40:53;18.30;30.60
59973;DHT22;55298;-36.624;-64.282;2023-11-21T10:43:25;18.40;30.00
59973;DHT22;55298;-36.624;-64.282;2023-11-21T10:45:58;18.60;30.10
59973;DHT22;55298;-36.624;-64.282;2023-11-21T10:48:32;19.10;28.80
59973;DHT22;55298;-36.624;-64.282;2023-11-21T10:51:07;19.50;28.50
59973;DHT22;55298;-36.624;-64.282;2023-11-21T10:53:46;19.40;27.90
59973;DHT22;55298;-36.624;-64.282;2023-11-21T10:56:19;19.70;28.30
59973;DHT22;55298;-36.624;-64.282;2023-11-21T10:58:49;21.00;27.20
59973;DHT22;55298;-36.624;-64.282;2023-11-21T11:01:19;22.10;25.40
59973;DHT22;55298;-36.624;-64.282;2023-11-21T11:03:49;23.20;24.40
59973;DHT22;55298;-36.624;-64.282;2023-11-21T11:06:19;24.30;23.40
59973;DHT22;55298;-36.624;-64.282;2023-11-21T11:08:47;25.20;21.90
59973;DHT22;55298;-36.624;-64.282;2023-11-21T11:11:16;25.60;21.60
59973;DHT22;55298;-36.624;-64.282;2023-11-21T11:13:45;25.70;21.10
59973;DHT22;55298;-36.624;-64.282;2023-11-21T11:16:14;25.90;20.20
59973;DHT22;55298;-36.624;-64.282;2023-11-21T11:18:44;25.80;20.50
59973;DHT22;55298;-36.624;-64.282;2023-11-21T11:21:26;25.40;20.60
59973;DHT22;55298;-36.624;-64.282;2023-11-21T11:24:25;24.80;21.80
59973;DHT22;55298;-36.624;-64.282;2023-11-21T11:27:14;24.30;22.20
59973;DHT22;55298;-36.624;-64.282;2023-11-21T11:35:26;24.00;23.40
59973;DHT22;55298;-36.624;-64.282;2023-11-21T11:37:58;24.20;22.30
59973;DHT22;55298;-36.624;-64.282;2023-11-21T11:41:03;24.50;22.00
59973;DHT22;55298;-36.624;-64.282;2023-11-21T11:44:02;24.40;22.20
59973;DHT22;55298;-36.624;-64.282;2023-11-21T11:46:41;23.80;22.50
59973;DHT22;55298;-36.624;-64.282;2023-11-21T11:49:09;23.60;23.10
59973;DHT22;55298;-36.624;-64.282;2023-11-21T11:51:38;23.30;23.10
59973;DHT22;55298;-36.624;-64.282;2023-11-21T11:54:06;23.30;23.60
59973;DHT22;55298;-36.624;-64.282;2023-11-21T11:56:34;23.30;23.60
59973;DHT22;55298;-36.624;-64.282;2023-11-21T11:59:04;23.30;23.50
59973;DHT22;55298;-36.624;-64.282;2023-11-21T12:01:36;23.10;23.20
59973;DHT22;55298;-36.624;-64.282;2023-11-21T12:04:24;22.90;23.50
59973;DHT22;55298;-36.624;-64.282;2023-11-21T12:07:00;22.90;23.40
59973;DHT22;55298;-36.624;-64.282;2023-11-21T12:09:31;22.90;22.80
59973;DHT22;55298;-36.624;-64.282;2023-11-21T12:11:59;23.00;22.70
59973;DHT22;55298;-36.624;-64.282;2023-11-21T12:14:27;23.20;22.50
59973;DHT22;55298;-36.624;-64.282;2023-11-21T12:16:57;23.30;22.70
59973;DHT22;55298;-36.624;-64.282;2023-11-21T12:19:26;23.40;22.60
59973;DHT22;55298;-36.624;-64.282;2023-11-21T12:21:54;23.30;22.60
59973;DHT22;55298;-36.624;-64.282;2023-11-21T12:24:22;23.50;22.40
59973;DHT22;55298;-36.624;-64.282;2023-11-21T12:26:51;23.60;22.40
59973;DHT22;55298;-36.624;-64.282;2023-11-21T12:29:21;23.80;22.00
59973;DHT22;55298;-36.624;-64.282;2023-11-21T12:31:50;24.00;22.00
59973;DHT22;55298;-36.624;-64.282;2023-11-21T12:34:33;24.30;21.80
59973;DHT22;55298;-36.624;-64.282;2023-11-21T12:37:03;25.00;20.90
59973;DHT22;55298;-36.624;-64.282;2023-11-21T12:39:31;26.10;20.50
59973;DHT22;55298;-36.624;-64.282;2023-11-21T12:42:00;27.00;19.10
59973;DHT22;55298;-36.624;-64.282;2023-11-21T12:44:29;28.00;18.40
59973;DHT22;55298;-36.624;-64.282;2023-11-21T12:46:57;28.00;17.80
59973;DHT22;55298;-36.624;-64.282;2023-11-21T12:49:25;28.20;18.50
59973;DHT22;55298;-36.624;-64.282;2023-11-21T12:51:53;28.80;17.50
59973;DHT22;55298;-36.624;-64.282;2023-11-21T12:54:21;28.20;16.70
59973;DHT22;55298;-36.624;-64.282;2023-11-21T12:56:51;27.80;17.60
59973;DHT22;55298;-36.624;-64.282;2023-11-21T12:59:21;27.80;17.90
59973;DHT22;55298;-36.624;-64.282;2023-11-21T13:01:51;27.90;17.30
59973;DHT22;55298;-36.624;-64.282;2023-11-21T13:04:19;28.30;17.50
59973;DHT22;55298;-36.624;-64.282;2023-11-21T13:06:47;28.30;17.10
59973;DHT22;55298;-36.624;-64.282;2023-11-21T13:09:16;28.60;17.70
59973;DHT22;55298;-36.624;-64.282;2023-11-21T13:11:51;28.60;17.50
59973;DHT22;55298;-36.624;-64.282;2023-11-21T13:14:32;29.40;17.40
59973;DHT22;55298;-36.624;-64.282;2023-11-21T13:17:09;29.60;17.30
59973;DHT22;55298;-36.624;-64.282;2023-11-21T13:19:37;30.00;16.50
59973;DHT22;55298;-36.624;-64.282;2023-11-21T13:22:05;30.30;16.00
59973;DHT22;55298;-36.624;-64.282;2023-11-21T13:24:36;29.60;16.20
59973;DHT22;55298;-36.624;-64.282;2023-11-21T13:27:07;29.60;16.20
59973;DHT22;55298;-36.624;-64.282;2023-11-21T13:29:37;28.80;16.80
59973;DHT22;55298;-36.624;-64.282;2023-11-21T13:32:05;29.00;17.10
59973;DHT22;55298;-36.624;-64.282;2023-11-21T13:34:33;29.70;16.80
59973;DHT22;55298;-36.624;-64.282;2023-11-21T13:37:03;30.10;16.50
59973;DHT22;55298;-36.624;-64.282;2023-11-21T13:39:36;30.60;16.60
59973;DHT22;55298;-36.624;-64.282;2023-11-21T13:42:05;31.40;16.00
59973;DHT22;55298;-36.624;-64.282;2023-11-21T13:44:33;31.60;15.10
59973;DHT22;55298;-36.624;-64.282;2023-11-21T13:47:05;31.70;14.80
59973;DHT22;55298;-36.624;-64.282;2023-11-21T13:49:33;31.90;14.90
59973;DHT22;55298;-36.624;-64.282;2023-11-21T13:52:07;32.00;14.90
59973;DHT22;55298;-36.624;-64.282;2023-11-21T13:54:38;32.00;14.80
59973;DHT22;55298;-36.624;-64.282;2023-11-21T13:57:06;32.10;15.00
59973;DHT22;55298;-36.624;-64.282;2023-11-21T13:59:36;31.90;14.10
59973;DHT22;55298;-36.624;-64.282;2023-11-21T14:02:19;31.60;14.40
59973;DHT22;55298;-36.624;-64.282;2023-11-21T14:04:58;31.40;14.70
59973;DHT22;55298;-36.624;-64.282;2023-11-21T14:07:27;31.30;14.50
59973;DHT22;55298;-36.624;-64.282;2023-11-21T14:10:03;31.00;14.70
59973;DHT22;55298;-36.624;-64.282;2023-11-21T14:12:34;31.00;14.90
59973;DHT22;55298;-36.624;-64.282;2023-11-21T14:15:04;30.90;14.50
59973;DHT22;55298;-36.624;-64.282;2023-11-21T14:17:34;30.40;14.80
59973;DHT22;55298;-36.624;-64.282;2023-11-21T14:20:02;30.40;15.20
59973;DHT22;55298;-36.624;-64.282;2023-11-21T14:22:32;30.20;15.10
59973;DHT22;55298;-36.624;-64.282;2023-11-21T14:25:02;30.40;15.50
59973;DHT22;55298;-36.624;-64.282;2023-11-21T14:27:33;30.80;15.30
59973;DHT22;55298;-36.624;-64.282;2023-11-21T14:30:01;30.60;15.20
59973;DHT22;55298;-36.624;-64.282;2023-11-21T14:32:30;31.40;15.40
59973;DHT22;55298;-36.624;-64.282;2023-11-21T14:34:57;30.70;15.00
59973;DHT22;55298;-36.624;-64.282;2023-11-21T14:37:25;30.00;15.50
59973;DHT22;55298;-36.624;-64.282;2023-11-21T14:39:53;29.30;16.00
59973;DHT22;55298;-36.624;-64.282;2023-11-21T14:42:22;29.40;16.80
59973;DHT22;55298;-36.624;-64.282;2023-11-21T14:44:54;29.90;16.80
59973;DHT22;55298;-36.624;-64.282;2023-11-21T14:47:27;30.20;16.30
59973;DHT22;55298;-36.624;-64.282;2023-11-21T14:50:10;29.80;16.40
59973;DHT22;55298;-36.624;-64.282;2023-11-21T14:53:16;29.90;16.80
59973;DHT22;55298;-36.624;-64.282;2023-11-21T14:56:19;30.10;15.00
59973;DHT22;55298;-36.624;-64.282;2023-11-21T14:58:54;29.10;15.40
59973;DHT22;55298;-36.624;-64.282;2023-11-21T15:01:24;28.20;16.40
59973;DHT22;55298;-36.624;-64.282;2023-11-21T15:04:01;27.80;17.20
59973;DHT22;55298;-36.624;-64.282;2023-11-21T15:06:31;27.60;17.20
59973;DHT22;55298;-36.624;-64.282;2023-11-21T15:09:00;27.60;17.80
59973;DHT22;55298;-36.624;-64.282;2023-11-21T15:11:47;27.60;17.50
59973;DHT22;55298;-36.624;-64.282;2023-11-21T15:14:14;27.80;17.30